METAR Data
IDs: Format: Raw Decoded Include TAF

Data at: 2119 UTC 08 Feb 2023

METAR for:KDLS (The Dalles Muni, OR, US)
Text:KDLS 082053Z AUTO 32005KT 10SM CLR 11/00 A3051 RMK AO2 SLP332 T01060000 58008
Temperature: 10.6°C ( 51°F)
Dewpoint: 0.0°C ( 32°F) [RH = 48%]
Pressure (altimeter):30.51 inches Hg (1033.3 mb) [Sea level pressure: 1033.2 mb]
Winds:from the NW (320 degrees) at 6 MPH (5 knots; 2.6 m/s)
Visibility:10 or more sm (16+ km)
Ceiling:at least 12,000 feet AGL
Clouds:sky clear below 12,000 feet AGL
QC Flag:automated observation with no human augmentation